KBRL

Southeast Iowa Regional Airport

Burlington, Iowa, USA
KBRL 190121Z 1901/1924 09015G24KT P6SM OVC012 TEMPO 1902/1903 3SM -SN BR FM190300 05015G26KT 1/2SM SN FZFG OVC005 FM190700 03018G28KT 3SM -SN BLSN OVC008 FM191500 01015G25KT 6SM BLSN OVC015
Issued Valid From Valid To
Jan-19 @ 01:21 UTC
(53 minutes ago)
Jan-19 @ 01:00 UTC
(an hour ago)
Jan-20 @ 00:00 UTC
(in 22 hours)
Jan-19 @ 01:00 to Jan-19 @ 03:00
KBRL 190121Z 1901/1924 09015G24KT P6SM OVC012
Wind Visibility Clouds
90° at 15 knots
 Gusting to 24 knots
Greater than 6 miles
  • Overcast at 1,200' AGL
Temporary Jan-19 @ 02:00 to Jan-19 @ 03:00
TEMPO 1902/1903 3SM -SN BR
Visibility Conditions
3 miles
  • Light Snow
  • Mist
From Jan-19 @ 03:00 to Jan-19 @ 07:00
FM190300 05015G26KT 1/2SM SN FZFG OVC005
Wind Visibility Clouds Conditions
50° at 15 knots
 Gusting to 26 knots
1/2 miles
  • Overcast at 500' AGL
  • Snow
  • Freezing
  • Fog
From Jan-19 @ 07:00 to Jan-19 @ 15:00
FM190700 03018G28KT 3SM -SN BLSN OVC008
Wind Visibility Clouds Conditions
30° at 18 knots
 Gusting to 28 knots
3 miles
  • Overcast at 800' AGL
  • Light Snow
  • Blowing
  • Snow
From Jan-19 @ 15:00 to Jan-20 @ 00:00
FM191500 01015G25KT 6SM BLSN OVC015
Wind Visibility Clouds Conditions
10° at 15 knots
 Gusting to 25 knots
6 miles
  • Overcast at 1,500' AGL
  • Blowing
  • Snow
KBRL 190121Z 1901/1924 09015G24KT P6SM OVC012 TEMPO 1902/1903 3SM -SN BR FM190300 05015G26KT 1/2SM SN FZFG OVC005 FM190700 03018G28KT 3SM -SN BLSN OVC008 FM191500 01015G25KT 6SM BLSN OVC015
Issued Jan-19 @ 01:21 UTC
(53 minutes ago)
Valid From Jan-19 @ 01:00 UTC
(an hour ago)
Valid To Jan-20 @ 00:00 UTC
(in 22 hours)
Jan-19 @ 01:00 - Jan-19 @ 03:00
Wind Visibility
90° at 15 knots
 Gusting to 24 knots
Greater than 6 miles
Clouds
  • Overcast at 1,200' AGL
Temporary Jan-19 @ 02:00 - Jan-19 @ 03:00
Conditions
  • Light Snow
  • Mist
From Jan-19 @ 03:00 - Jan-19 @ 07:00
Wind Visibility
50° at 15 knots
 Gusting to 26 knots
1/2 miles
Clouds
  • Overcast at 500' AGL
Conditions
  • Snow
  • Freezing
  • Fog
From Jan-19 @ 07:00 - Jan-19 @ 15:00
Wind Visibility
30° at 18 knots
 Gusting to 28 knots
3 miles
Clouds
  • Overcast at 800' AGL
Conditions
  • Light Snow
  • Blowing
  • Snow
From Jan-19 @ 15:00 - Jan-20 @ 00:00
Wind Visibility
10° at 15 knots
 Gusting to 25 knots
6 miles
Clouds
  • Overcast at 1,500' AGL
Conditions
  • Blowing
  • Snow